Time;durP1;ratioP1;P1;durP2;ratioP2;P2;SDS_P1;SDS_P2;PMS_P1;PMS_P2;Temp;Humidity;BMP_temperature;BMP_pressure;BME280_temperature;BME280_humidity;BME280_pressure;Samples;Min_cycle;Max_cycle;Signal;HPM_P1;HPM_P2
2022/03/26 00:01:45;;;;;;;30.43;17.27;;;6.60;99.90;;;;;;5066739;28;20743;-82
2022/03/26 00:04:11;;;;;;;32.67;19.43;;;6.60;99.90;;;;;;5048133;28;20225;-82
2022/03/26 00:06:38;;;;;;;36.77;18.13;;;6.50;99.90;;;;;;5064958;28;20227;-89
2022/03/26 00:09:04;;;;;;;34.67;17.97;;;6.50;99.90;;;;;;5066782;28;20217;-82
2022/03/26 00:11:30;;;;;;;38.03;16.63;;;6.40;99.90;;;;;;5065603;28;20250;-83
2022/03/26 00:13:55;;;;;;;40.77;21.60;;;6.40;99.90;;;;;;5048494;28;20225;-83
2022/03/26 00:16:21;;;;;;;35.27;19.97;;;6.40;99.90;;;;;;5064497;28;20231;-83
2022/03/26 00:18:47;;;;;;;35.17;19.50;;;6.40;99.90;;;;;;5064998;28;20221;-83
2022/03/26 00:21:13;;;;;;;48.03;17.80;;;6.30;99.90;;;;;;5047896;28;20634;-82
2022/03/26 00:23:39;;;;;;;30.27;17.53;;;6.30;99.90;;;;;;5065493;28;20288;-83
2022/03/26 00:26:05;;;;;;;42.37;19.03;;;6.30;99.90;;;;;;5048120;28;20613;-87
2022/03/26 00:28:31;;;;;;;33.13;18.40;;;6.50;99.90;;;;;;5031048;28;20707;-85
2022/03/26 00:30:57;;;;;;;43.20;18.00;;;6.50;99.90;;;;;;5031622;28;21194;-85
2022/03/26 00:33:23;;;;;;;45.73;17.03;;;6.60;99.90;;;;;;5048229;28;20241;-82
2022/03/26 00:35:49;;;;;;;40.60;19.07;;;6.60;99.90;;;;;;5041471;28;20193;-83
2022/03/26 00:38:15;;;;;;;40.47;18.20;;;6.60;99.90;;;;;;5031571;28;21144;-82
2022/03/26 00:40:41;;;;;;;39.30;19.10;;;6.70;99.90;;;;;;5029775;28;20217;-84
2022/03/26 00:43:07;;;;;;;45.80;20.80;;;6.70;99.90;;;;;;5078919;28;20515;-89
2022/03/26 00:45:34;;;;;;;34.87;16.73;;;6.80;99.90;;;;;;5061887;28;20762;-88
2022/03/26 00:48:01;;;;;;;38.67;19.03;;;6.70;99.90;;;;;;5054957;28;20276;-85
2022/03/26 00:50:27;;;;;;;40.37;21.83;;;6.70;99.90;;;;;;5066049;28;20815;-82
2022/03/26 00:52:53;;;;;;;34.03;18.97;;;6.70;99.90;;;;;;5055976;28;20213;-84
2022/03/26 00:55:19;;;;;;;36.03;17.17;;;6.60;99.90;;;;;;5066112;28;20221;-82
2022/03/26 00:57:45;;;;;;;36.87;19.67;;;6.70;99.90;;;;;;5081391;28;20650;-89
2022/03/26 01:00:12;;;;;;;33.13;20.67;;;6.70;99.90;;;;;;5064581;28;20185;-86
2022/03/26 01:02:38;;;;;;;52.67;23.40;;;6.80;99.90;;;;;;5064763;28;20228;-85
2022/03/26 01:05:05;;;;;;;44.30;21.73;;;6.90;99.90;;;;;;5081252;28;20259;-85
2022/03/26 01:07:31;;;;;;;55.17;22.00;;;6.90;99.90;;;;;;5066229;28;20298;-82
2022/03/26 01:09:57;;;;;;;34.87;19.17;;;6.90;99.90;;;;;;5047703;28;20256;-84
2022/03/26 01:12:25;;;;;;;46.43;21.60;;;6.90;99.90;;;;;;5064399;28;20233;-85
2022/03/26 01:14:52;;;;;;;55.63;22.20;;;6.90;99.90;;;;;;5066753;28;20192;-83
2022/03/26 01:17:18;;;;;;;40.27;19.20;;;7.00;99.90;;;;;;5046317;28;20217;-82
2022/03/26 01:19:45;;;;;;;52.67;19.17;;;6.90;99.90;;;;;;5064202;28;20243;-84
2022/03/26 01:22:11;;;;;;;49.57;22.30;;;7.00;99.90;;;;;;5047365;28;20760;-82
2022/03/26 01:24:37;;;;;;;33.60;20.80;;;7.00;99.90;;;;;;5046492;28;20834;-86
2022/03/26 01:27:03;;;;;;;47.90;21.70;;;7.00;99.90;;;;;;5046795;28;20284;-84
2022/03/26 01:29:29;;;;;;;42.47;21.53;;;6.90;99.90;;;;;;5047602;28;20192;-82
2022/03/26 01:31:54;;;;;;;47.30;17.97;;;6.80;99.90;;;;;;5048883;28;20580;-82
2022/03/26 01:34:22;;;;;;;33.40;18.57;;;6.80;99.90;;;;;;5031431;28;20232;-86
2022/03/26 01:36:48;;;;;;;36.70;18.27;;;6.90;99.90;;;;;;5047892;28;20629;-84
2022/03/26 01:39:14;;;;;;;45.10;20.27;;;6.80;99.90;;;;;;5048672;28;20292;-84
2022/03/26 01:41:40;;;;;;;35.27;16.30;;;6.70;99.90;;;;;;5065490;28;20690;-83
2022/03/26 01:44:10;;;;;;;49.40;17.50;;;6.60;99.90;;;;;;5064283;28;20316;-82
2022/03/26 01:46:53;;;;;;;29.87;20.07;;;6.70;99.90;;;;;;5065992;28;20249;-82
2022/03/26 01:49:20;;;;;;;29.43;19.33;;;6.70;99.90;;;;;;5081851;28;20221;-83
2022/03/26 01:51:47;;;;;;;49.00;24.37;;;6.70;99.90;;;;;;5064768;28;20246;-82
2022/03/26 01:54:14;;;;;;;46.07;19.00;;;6.70;99.90;;;;;;5047340;28;20193;-83
2022/03/26 01:56:41;;;;;;;44.70;22.50;;;6.80;99.90;;;;;;5064961;28;20323;-88
2022/03/26 01:59:08;;;;;;;35.87;21.93;;;6.90;99.90;;;;;;5030808;28;20218;-85
2022/03/26 02:01:35;;;;;;;38.00;22.47;;;6.90;99.90;;;;;;5081469;28;20612;-83
2022/03/26 02:04:01;;;;;;;32.73;19.80;;;6.90;99.90;;;;;;5047467;28;20236;-82
2022/03/26 02:06:34;;;;;;;35.67;18.83;;;6.80;99.90;;;;;;5065633;28;20214;-82
2022/03/26 02:09:05;;;;;;;38.00;18.63;;;6.80;99.90;;;;;;5048107;28;20185;-82
2022/03/26 02:11:39;;;;;;;35.70;21.23;;;6.90;99.90;;;;;;5065627;28;20189;-84
2022/03/26 02:14:07;;;;;;;37.53;21.70;;;6.90;99.90;;;;;;5068270;28;20603;-82
2022/03/26 02:16:33;;;;;;;36.03;18.57;;;6.80;99.90;;;;;;5060880;28;20240;-81
2022/03/26 02:18:59;;;;;;;33.57;19.93;;;6.80;99.90;;;;;;5068477;28;20217;-88
2022/03/26 02:21:25;;;;;;;36.10;19.13;;;6.80;99.90;;;;;;5068166;28;20422;-82
2022/03/26 02:23:52;;;;;;;25.53;14.23;;;6.70;99.90;;;;;;5047006;28;20246;-90
2022/03/26 02:26:26;;;;;;;41.00;19.13;;;6.60;99.90;;;;;;5030948;28;20274;-79
2022/03/26 02:28:57;;;;;;;30.07;17.63;;;6.50;99.90;;;;;;5049209;28;20221;-82
2022/03/26 02:31:26;;;;;;;33.33;18.47;;;6.50;99.90;;;;;;5049299;28;20292;-84
2022/03/26 02:33:53;;;;;;;25.70;15.10;;;6.40;99.90;;;;;;5049745;28;20706;-83
2022/03/26 02:36:18;;;;;;;31.87;18.50;;;6.50;99.90;;;;;;5083094;28;20205;-82
2022/03/26 02:38:44;;;;;;;50.53;15.90;;;6.50;99.90;;;;;;5069018;28;20254;-86
2022/03/26 02:41:10;;;;;;;49.37;19.83;;;6.50;99.90;;;;;;5067903;28;20274;-81
2022/03/26 02:43:36;;;;;;;34.57;17.73;;;6.50;99.90;;;;;;5050352;28;20233;-82
2022/03/26 02:46:03;;;;;;;32.47;17.63;;;6.50;99.90;;;;;;5049417;28;20243;-82
2022/03/26 02:48:30;;;;;;;30.57;17.03;;;6.50;99.90;;;;;;5066775;28;20225;-82
2022/03/26 02:50:56;;;;;;;22.63;14.13;;;6.40;99.90;;;;;;5050055;28;20177;-86
2022/03/26 02:53:22;;;;;;;21.10;16.23;;;6.40;99.90;;;;;;5049339;28;20236;-82
2022/03/26 02:55:48;;;;;;;25.23;16.40;;;6.40;99.90;;;;;;5066041;28;20212;-82
2022/03/26 02:58:13;;;;;;;51.47;19.17;;;6.40;99.90;;;;;;5031709;28;20238;-86
2022/03/26 03:00:39;;;;;;;22.53;15.80;;;6.40;99.90;;;;;;5067668;28;20209;-83
2022/03/26 03:03:08;;;;;;;29.03;16.37;;;6.40;99.90;;;;;;5063476;28;20193;-85
2022/03/26 03:05:34;;;;;;;29.17;14.17;;;6.40;99.90;;;;;;5064361;28;20302;-83
2022/03/26 03:08:01;;;;;;;26.80;14.60;;;6.50;99.90;;;;;;5064142;28;20225;-86
2022/03/26 03:10:28;;;;;;;27.33;15.97;;;6.50;99.90;;;;;;5048008;28;20247;-82
2022/03/26 03:12:54;;;;;;;32.10;16.13;;;6.50;99.90;;;;;;5048946;28;21053;-84
2022/03/26 03:15:21;;;;;;;26.07;16.37;;;6.50;99.90;;;;;;5048949;28;20227;-81
2022/03/26 03:17:49;;;;;;;39.57;19.23;;;6.50;99.90;;;;;;5049261;28;20277;-81
2022/03/26 03:20:15;;;;;;;31.90;16.23;;;6.50;99.90;;;;;;5067357;28;20225;-82
2022/03/26 03:22:42;;;;;;;30.43;16.10;;;6.50;99.90;;;;;;5065828;28;20221;-86
2022/03/26 03:25:09;;;;;;;27.43;15.47;;;6.50;99.90;;;;;;5040353;28;20681;-84
2022/03/26 03:27:35;;;;;;;29.33;18.13;;;6.50;99.90;;;;;;5041003;28;20220;-82
2022/03/26 03:30:02;;;;;;;33.13;14.00;;;6.50;99.90;;;;;;5066436;28;20215;-86
2022/03/26 03:32:28;;;;;;;22.93;14.57;;;6.40;99.90;;;;;;5083642;28;20569;-82
2022/03/26 03:34:54;;;;;;;36.60;17.03;;;6.60;99.90;;;;;;5048131;28;20221;-88
2022/03/26 03:37:20;;;;;;;37.57;18.53;;;6.70;99.90;;;;;;5066112;28;20279;-83
2022/03/26 03:39:46;;;;;;;23.67;15.80;;;6.70;99.90;;;;;;5032219;28;20205;-81
2022/03/26 03:42:12;;;;;;;27.83;17.63;;;6.70;99.90;;;;;;5040411;28;20645;-83
2022/03/26 03:44:37;;;;;;;27.73;17.77;;;6.70;99.90;;;;;;5049813;28;20250;-84
2022/03/26 03:47:04;;;;;;;35.70;16.60;;;6.60;99.90;;;;;;5028901;28;20273;-82
2022/03/26 03:49:31;;;;;;;38.43;17.80;;;6.70;99.90;;;;;;5045585;28;20280;-86
2022/03/26 03:51:58;;;;;;;30.03;14.17;;;6.60;99.90;;;;;;5046938;28;20226;-83
2022/03/26 03:54:25;;;;;;;21.37;14.73;;;6.60;99.90;;;;;;5047046;28;20226;-82
2022/03/26 03:56:51;;;;;;;35.73;18.30;;;6.60;99.90;;;;;;5047298;28;20286;-81
2022/03/26 03:59:16;;;;;;;37.27;20.23;;;6.50;99.90;;;;;;5045029;28;20308;-84
2022/03/26 04:01:42;;;;;;;34.43;17.20;;;6.30;99.90;;;;;;5045450;28;20220;-85
2022/03/26 04:04:08;;;;;;;28.80;14.70;;;6.10;99.90;;;;;;5028730;28;20999;-83
2022/03/26 04:06:34;;;;;;;27.30;16.80;;;6.10;99.90;;;;;;5028779;28;20694;-81
2022/03/26 04:09:00;;;;;;;32.43;15.00;;;6.00;99.90;;;;;;5021601;28;20194;-80
2022/03/26 04:11:25;;;;;;;36.07;14.33;;;5.80;99.90;;;;;;5045976;28;20264;-83
2022/03/26 04:13:53;;;;;;;28.67;17.17;;;5.80;99.90;;;;;;5028343;28;20233;-86
2022/03/26 04:16:22;;;;;;;19.03;14.27;;;5.80;99.90;;;;;;5045016;28;20241;-83
2022/03/26 04:18:48;;;;;;;34.03;17.90;;;5.90;99.90;;;;;;5061757;28;20213;-84
2022/03/26 04:21:14;;;;;;;25.70;15.87;;;5.80;99.90;;;;;;5027734;28;20720;-83
2022/03/26 04:23:40;;;;;;;34.17;17.90;;;5.80;99.90;;;;;;5045102;28;20182;-82
2022/03/26 04:26:09;;;;;;;21.53;14.77;;;5.70;99.90;;;;;;5020251;28;20267;-88
2022/03/26 04:28:35;;;;;;;43.23;18.57;;;5.70;99.90;;;;;;5045936;28;20320;-85
2022/03/26 04:31:03;;;;;;;43.20;17.00;;;5.70;99.90;;;;;;5045597;28;20573;-82
2022/03/26 04:33:28;;;;;;;24.70;13.63;;;5.70;99.90;;;;;;5044650;28;20230;-83
2022/03/26 04:35:54;;;;;;;23.13;13.70;;;5.90;99.90;;;;;;5027783;28;20194;-82
2022/03/26 04:38:20;;;;;;;27.40;15.30;;;6.10;99.90;;;;;;5018640;28;20217;-82
2022/03/26 04:40:46;;;;;;;24.73;16.00;;;6.30;99.90;;;;;;5044578;28;20964;-83
2022/03/26 04:43:13;;;;;;;34.27;15.57;;;6.50;99.90;;;;;;5045700;28;20221;-84
2022/03/26 04:45:39;;;;;;;29.37;14.20;;;6.50;99.90;;;;;;5043747;28;20253;-82
2022/03/26 04:48:05;;;;;;;31.80;16.13;;;6.40;99.90;;;;;;5061270;28;21098;-83
2022/03/26 04:50:31;;;;;;;41.70;16.60;;;6.30;99.90;;;;;;5045714;28;20186;-83
2022/03/26 04:52:57;;;;;;;22.87;13.67;;;6.20;99.90;;;;;;5018498;28;20563;-83
2022/03/26 04:55:23;;;;;;;33.10;16.23;;;6.20;99.90;;;;;;5028246;28;20248;-84
2022/03/26 04:57:49;;;;;;;29.20;15.03;;;6.10;99.90;;;;;;5043616;28;20685;-85
2022/03/26 05:00:17;;;;;;;28.80;16.33;;;6.10;99.90;;;;;;5045133;28;20194;-88
2022/03/26 05:02:44;;;;;;;30.20;15.17;;;6.00;99.90;;;;;;5045188;28;20215;-86
2022/03/26 05:05:11;;;;;;;28.73;16.30;;;6.00;99.90;;;;;;5026875;28;20224;-83
2022/03/26 05:07:47;;;;;;;33.63;15.27;;;5.80;99.90;;;;;;5044104;28;20222;-85
2022/03/26 05:10:27;;;;;;;32.77;13.47;;;5.70;99.90;;;;;;5043541;28;20236;-86
2022/03/26 05:12:53;;;;;;;29.37;15.40;;;5.70;99.90;;;;;;5044306;28;20233;-84
2022/03/26 05:15:21;;;;;;;29.47;13.70;;;5.80;99.90;;;;;;5060497;28;20234;-87
2022/03/26 05:17:48;;;;;;;23.83;15.17;;;5.80;99.90;;;;;;5061784;28;20186;-82
2022/03/26 05:20:14;;;;;;;19.77;9.90;;;5.80;99.90;;;;;;5043836;28;20218;-83
2022/03/26 05:22:47;;;;;;;29.77;13.50;;;5.90;99.90;;;;;;5043685;28;20228;-83
2022/03/26 05:25:15;;;;;;;29.97;14.37;;;6.00;99.90;;;;;;5043462;28;20210;-83
2022/03/26 05:27:52;;;;;;;29.27;15.43;;;6.10;99.90;;;;;;5044010;28;20562;-86
2022/03/26 05:30:18;;;;;;;25.40;15.90;;;6.00;99.90;;;;;;5044410;28;20243;-83
2022/03/26 05:32:45;;;;;;;15.30;12.70;;;5.90;99.90;;;;;;5045675;28;20225;-83
2022/03/26 05:35:13;;;;;;;36.13;16.40;;;5.80;99.90;;;;;;5044607;28;20228;-82
2022/03/26 05:37:46;;;;;;;24.73;13.37;;;5.80;99.90;;;;;;5021148;28;20244;-83
2022/03/26 05:40:16;;;;;;;38.43;11.17;;;5.90;99.90;;;;;;5044446;28;20221;-82
2022/03/26 05:42:42;;;;;;;17.87;12.33;;;6.10;99.90;;;;;;5044199;28;20214;-82
2022/03/26 05:45:09;;;;;;;36.30;15.40;;;6.20;99.90;;;;;;5060123;28;20198;-83
2022/03/26 05:47:37;;;;;;;22.70;10.40;;;6.30;99.90;;;;;;5032975;28;20198;-83
2022/03/26 05:50:06;;;;;;;23.93;15.33;;;6.50;99.90;;;;;;5050062;28;20580;-82
2022/03/26 05:52:32;;;;;;;24.83;14.33;;;6.80;99.90;;;;;;5050694;28;20741;-84
2022/03/26 05:54:57;;;;;;;28.57;12.67;;;7.10;99.90;;;;;;5033471;28;20236;-89
2022/03/26 05:57:23;;;;;;;28.47;13.97;;;7.40;99.90;;;;;;5031558;28;20588;-83
2022/03/26 05:59:49;;;;;;;26.80;16.60;;;7.90;99.90;;;;;;5086417;28;20182;-85
2022/03/26 06:02:15;;;;;;;25.50;14.90;;;8.30;99.90;;;;;;5036084;28;20718;-85
2022/03/26 06:04:42;;;;;;;18.47;11.07;;;8.90;99.90;;;;;;5051882;28;20273;-85
2022/03/26 06:07:08;;;;;;;23.13;10.10;;;9.20;99.90;;;;;;5052476;28;20228;-84
2022/03/26 06:09:38;;;;;;;32.37;15.77;;;9.30;99.90;;;;;;5086497;28;20220;-84
2022/03/26 06:12:05;;;;;;;21.87;13.67;;;9.00;99.90;;;;;;5070972;28;20232;-85
2022/03/26 06:14:31;;;;;;;36.33;16.57;;;8.90;99.90;;;;;;5062643;28;20251;-84
2022/03/26 06:16:57;;;;;;;27.33;17.17;;;9.20;99.90;;;;;;5051222;28;20232;-88
2022/03/26 06:19:24;;;;;;;49.77;16.80;;;9.60;99.90;;;;;;5066887;28;20217;-84
2022/03/26 06:21:51;;;;;;;37.80;17.57;;;10.00;99.90;;;;;;5066144;28;20216;-88
2022/03/26 06:24:17;;;;;;;28.60;14.07;;;10.30;99.90;;;;;;5048907;28;20208;-88
2022/03/26 06:26:44;;;;;;;35.73;16.83;;;10.20;99.90;;;;;;5051466;28;20189;-84
2022/03/26 06:29:11;;;;;;;39.10;17.80;;;10.30;99.90;;;;;;5034834;28;20213;-84
2022/03/26 06:31:37;;;;;;;33.00;19.23;;;10.30;99.90;;;;;;5050507;28;20213;-83
2022/03/26 06:34:03;;;;;;;30.93;15.70;;;10.50;99.90;;;;;;5048697;28;20240;-85
2022/03/26 06:36:28;;;;;;;32.83;19.13;;;11.00;99.90;;;;;;5050113;28;20806;-85
2022/03/26 06:38:54;;;;;;;44.97;19.23;;;11.30;99.90;;;;;;5050563;28;20193;-84
2022/03/26 06:41:20;;;;;;;37.67;16.83;;;11.90;99.90;;;;;;5047707;28;20705;-84
2022/03/26 06:43:46;;;;;;;38.37;18.00;;;12.50;99.90;;;;;;5033433;28;20573;-85
2022/03/26 06:46:12;;;;;;;36.20;20.13;;;13.70;99.90;;;;;;5051856;28;20248;-86
2022/03/26 06:48:39;;;;;;;24.37;15.47;;;14.80;99.90;;;;;;5067106;28;20232;-82
2022/03/26 06:51:08;;;;;;;40.73;19.20;;;15.30;99.90;;;;;;5068026;28;20186;-87
2022/03/26 06:53:34;;;;;;;30.00;16.40;;;15.70;99.90;;;;;;5069017;28;20260;-84
2022/03/26 06:56:01;;;;;;;40.87;21.57;;;15.00;99.90;;;;;;5050261;28;20270;-85
2022/03/26 06:58:27;;;;;;;33.87;17.77;;;14.50;99.90;;;;;;5083633;28;20718;-83
2022/03/26 07:00:53;;;;;;;42.50;18.30;;;14.60;99.90;;;;;;5034216;28;20205;-85
2022/03/26 07:03:19;;;;;;;41.30;20.07;;;15.60;99.90;;;;;;5067188;28;20217;-86
2022/03/26 07:05:46;;;;;;;43.33;20.47;;;15.60;99.90;;;;;;5067440;28;20193;-83
2022/03/26 07:08:12;;;;;;;45.67;20.67;;;16.40;99.90;;;;;;5049766;28;20290;-83
2022/03/26 07:10:41;;;;;;;45.07;20.10;;;16.70;99.90;;;;;;5066315;28;20316;-82
2022/03/26 07:13:07;;;;;;;49.07;21.73;;;17.60;99.90;;;;;;5049065;28;20271;-88
2022/03/26 07:15:33;;;;;;;42.17;20.13;;;18.10;99.90;;;;;;5069202;28;20213;-83
2022/03/26 07:17:59;;;;;;;43.10;19.10;;;18.70;99.90;;;;;;5048788;28;20186;-82
2022/03/26 07:20:25;;;;;;;55.03;23.00;;;19.90;99.90;;;;;;5043509;28;20588;-87
2022/03/26 07:22:51;;;;;;;50.47;20.70;;;20.90;99.90;;;;;;5066330;28;20252;-84
2022/03/26 07:25:16;;;;;;;47.20;20.33;;;21.30;99.90;;;;;;5032289;28;20257;-88
2022/03/26 07:27:42;;;;;;;48.90;21.83;;;22.00;99.90;;;;;;5066246;28;20254;-84
2022/03/26 07:30:10;;;;;;;57.87;21.90;;;22.60;99.90;;;;;;5065685;28;20214;-87
2022/03/26 07:32:36;;;;;;;48.77;22.20;;;23.20;99.90;;;;;;5048596;28;20209;-85
2022/03/26 07:35:03;;;;;;;55.77;23.07;;;23.30;99.90;;;;;;5080055;28;20239;-84
2022/03/26 07:37:29;;;;;;;49.10;21.33;;;23.50;99.90;;;;;;5046923;28;20224;-81
2022/03/26 07:39:54;;;;;;;45.80;19.87;;;23.80;99.90;;;;;;5064637;28;20244;-86
2022/03/26 07:42:20;;;;;;;50.67;23.33;;;23.60;99.90;;;;;;5047937;28;20236;-82
2022/03/26 07:44:46;;;;;;;40.07;20.27;;;23.50;99.90;;;;;;5049264;28;20969;-88
2022/03/26 07:47:11;;;;;;;49.13;22.13;;;23.60;99.90;;;;;;5082070;28;20603;-82
2022/03/26 07:49:37;;;;;;;41.27;20.83;;;24.30;99.90;;;;;;5049150;28;20232;-81
2022/03/26 07:52:04;;;;;;;41.37;20.60;;;24.10;99.90;;;;;;5065704;28;20220;-83
2022/03/26 07:54:29;;;;;;;48.90;21.47;;;23.70;99.90;;;;;;5063947;28;20229;-82
2022/03/26 07:56:55;;;;;;;42.23;20.70;;;23.40;99.90;;;;;;5048240;28;20185;-84
2022/03/26 07:59:21;;;;;;;48.37;21.90;;;22.70;99.90;;;;;;5063207;28;20259;-83
2022/03/26 08:01:47;;;;;;;41.27;19.97;;;23.00;99.90;;;;;;5030640;28;20303;-83
2022/03/26 08:04:12;;;;;;;44.53;19.67;;;22.30;99.90;;;;;;5030536;28;20311;-86
2022/03/26 08:06:38;;;;;;;40.23;19.80;;;22.10;99.90;;;;;;5047210;28;20216;-85
2022/03/26 08:09:04;;;;;;;43.63;19.60;;;22.60;99.90;;;;;;5047152;28;20193;-84
2022/03/26 08:11:29;;;;;;;39.63;18.37;;;22.30;99.90;;;;;;5080796;28;20221;-84
2022/03/26 08:13:55;;;;;;;38.30;19.03;;;21.40;99.90;;;;;;5080330;28;20680;-86
2022/03/26 08:16:21;;;;;;;50.03;19.33;;;19.80;99.90;;;;;;5063651;28;20233;-83
2022/03/26 08:18:47;;;;;;;29.27;15.70;;;20.30;99.90;;;;;;5080455;28;20241;-83
2022/03/26 08:21:15;;;;;;;40.87;18.67;;;18.30;99.90;;;;;;5047149;28;20185;-84
2022/03/26 08:23:41;;;;;;;34.37;17.30;;;17.70;99.90;;;;;;5030034;28;20205;-83
2022/03/26 08:26:19;;;;;;;34.20;17.03;;;17.40;99.90;;;;;;5065018;28;20225;-84
2022/03/26 08:28:46;;;;;;;31.70;15.80;;;16.80;99.90;;;;;;5064522;28;20288;-85
2022/03/26 08:31:13;;;;;;;34.63;16.10;;;16.40;99.90;;;;;;5063456;28;20316;-84
2022/03/26 08:33:39;;;;;;;30.73;16.70;;;15.80;99.90;;;;;;5030071;28;20711;-83
2022/03/26 08:36:06;;;;;;;24.90;12.77;;;16.00;99.90;;;;;;5064692;28;20654;-87
2022/03/26 08:38:31;;;;;;;33.40;19.13;;;17.00;99.90;;;;;;5030010;28;21112;-85
2022/03/26 08:40:57;;;;;;;30.37;16.27;;;16.90;99.90;;;;;;5063171;28;20232;-84
2022/03/26 08:43:23;;;;;;;31.50;16.00;;;17.00;99.90;;;;;;5046411;28;20213;-84
2022/03/26 08:45:49;;;;;;;35.40;18.17;;;17.20;99.90;;;;;;5052720;28;20260;-84
2022/03/26 08:48:17;;;;;;;30.03;15.00;;;17.60;99.90;;;;;;5063336;28;20526;-83
2022/03/26 08:50:43;;;;;;;26.33;15.70;;;17.30;99.90;;;;;;5046903;28;20367;-90
2022/03/26 08:53:13;;;;;;;25.27;13.17;;;17.30;99.90;;;;;;5063320;28;20340;-87
2022/03/26 08:55:38;;;;;;;30.93;15.70;;;15.90;99.90;;;;;;5079911;28;20220;-82
2022/03/26 08:58:04;;;;;;;27.40;12.90;;;17.80;99.90;;;;;;5030823;28;21115;-87
2022/03/26 09:00:30;;;;;;;23.57;12.43;;;19.00;99.90;;;;;;5063364;28;20219;-92
2022/03/26 09:02:56;;;;;;;25.33;14.57;;;17.50;99.90;;;;;;5048153;28;20189;-90
2022/03/26 09:05:22;;;;;;;26.60;14.73;;;17.20;99.90;;;;;;5047378;28;20296;-90
2022/03/26 09:07:49;;;;;;;23.40;11.77;;;18.40;99.90;;;;;;5030440;28;20300;-91
2022/03/26 09:10:15;;;;;;;20.97;11.13;;;18.20;99.90;;;;;;5046937;28;20220;-92
2022/03/26 09:12:41;;;;;;;21.77;12.00;;;18.10;99.90;;;;;;5064488;28;20282;-90
2022/03/26 09:15:08;;;;;;;27.27;13.13;;;18.00;99.90;;;;;;5081739;28;20201;-91
2022/03/26 09:17:37;;;;;;;22.10;11.87;;;18.90;99.90;;;;;;5032320;28;20551;-91
2022/03/26 09:20:04;;;;;;;18.47;11.23;;;17.70;99.90;;;;;;5047487;28;20241;-91
2022/03/26 09:22:30;;;;;;;21.70;10.90;;;16.50;99.90;;;;;;5048210;28;20233;-90
2022/03/26 09:24:56;;;;;;;17.47;10.47;;;16.10;99.90;;;;;;5050376;28;20221;-90
2022/03/26 09:27:22;;;;;;;18.77;10.67;;;15.70;99.90;;;;;;5084877;28;20213;-91
2022/03/26 09:29:47;;;;;;;19.40;11.87;;;15.60;99.90;;;;;;5045069;28;20189;-91
2022/03/26 09:32:13;;;;;;;22.90;11.53;;;16.50;99.90;;;;;;5085261;28;20657;-90
2022/03/26 09:34:39;;;;;;;19.53;9.77;;;17.70;99.90;;;;;;5050793;28;20294;-90
2022/03/26 09:37:05;;;;;;;19.20;9.70;;;18.00;99.90;;;;;;5084402;28;20304;-90
2022/03/26 09:39:31;;;;;;;17.20;8.40;;;18.30;99.90;;;;;;5068744;28;20499;-90
2022/03/26 09:41:58;;;;;;;12.87;7.57;;;18.80;99.90;;;;;;5069837;28;20718;-90
2022/03/26 09:44:24;;;;;;;15.53;8.40;;;18.50;99.90;;;;;;5051936;28;20251;-92
2022/03/26 09:46:50;;;;;;;14.23;7.60;;;18.70;99.90;;;;;;5084843;28;20736;-91
2022/03/26 09:49:16;;;;;;;18.37;10.27;;;19.30;99.90;;;;;;5067147;28;20335;-91
2022/03/26 09:51:43;;;;;;;10.77;7.70;;;20.10;99.90;;;;;;5058084;28;20213;-90
2022/03/26 09:54:15;;;;;;;17.83;9.13;;;19.20;99.90;;;;;;5069875;28;20255;-91
2022/03/26 09:56:41;;;;;;;17.87;9.43;;;18.30;99.90;;;;;;5071152;28;20178;-90
2022/03/26 09:59:07;;;;;;;15.30;7.27;;;19.10;99.90;;;;;;5085859;28;20217;-91
2022/03/26 10:01:33;;;;;;;12.47;6.27;;;19.40;99.90;;;;;;5044030;28;20228;-93
2022/03/26 10:04:16;;;;;;;9.73;5.37;;;18.00;99.90;;;;;;5067775;28;20262;-90
2022/03/26 10:06:52;;;;;;;11.47;5.63;;;17.20;99.90;;;;;;5050255;28;20239;-92
2022/03/26 10:09:38;;;;;;;11.50;5.83;;;16.90;99.90;;;;;;5068527;28;20200;-91
2022/03/26 10:12:12;;;;;;;12.60;5.77;;;17.70;99.90;;;;;;5051617;28;20185;-91
2022/03/26 10:14:44;;;;;;;6.20;4.00;;;18.40;99.90;;;;;;5050861;28;20197;-89
2022/03/26 10:17:11;;;;;;;14.37;3.27;;;17.10;99.90;;;;;;5068842;28;20224;-91
2022/03/26 10:19:42;;;;;;;8.53;4.57;;;17.20;99.90;;;;;;5084814;28;20951;-90
2022/03/26 10:22:28;;;;;;;17.17;5.20;;;17.80;99.90;;;;;;5044417;28;20229;-91
2022/03/26 10:24:56;;;;;;;10.13;4.33;;;19.30;99.90;;;;;;5068625;28;20209;-92
2022/03/26 10:27:22;;;;;;;10.37;5.17;;;17.60;99.90;;;;;;5067081;28;21046;-93
2022/03/26 10:29:52;;;;;;;6.83;3.70;;;17.80;99.90;;;;;;5067482;28;20193;-90
2022/03/26 10:32:49;;;;;;;7.80;3.87;;;17.50;99.90;;;;;;5048590;28;20758;-92
2022/03/26 10:35:24;;;;;;;6.80;4.00;;;18.20;99.90;;;;;;5070557;28;20228;-91
2022/03/26 10:37:58;;;;;;;8.27;3.30;;;18.70;99.90;;;;;;5050124;28;20217;-90
2022/03/26 10:40:36;;;;;;;7.50;3.43;;;18.40;99.90;;;;;;5050799;28;20251;-91
2022/03/26 10:43:12;;;;;;;3.97;3.57;;;18.70;99.90;;;;;;5049815;28;20244;-91
2022/03/26 10:45:52;;;;;;;6.13;3.23;;;18.30;99.90;;;;;;5049811;28;20290;-89
2022/03/26 10:48:29;;;;;;;5.57;4.20;;;17.90;99.90;;;;;;5050258;28;20189;-89
2022/03/26 10:51:07;;;;;;;6.40;3.57;;;17.00;99.90;;;;;;5084114;28;20224;-92
2022/03/26 10:53:38;;;;;;;5.43;2.57;;;18.10;99.90;;;;;;5050197;28;20225;-89
2022/03/26 10:56:07;;;;;;;7.20;4.43;;;18.20;99.90;;;;;;5047738;28;20718;-91
2022/03/26 10:58:35;;;;;;;5.17;3.40;;;18.50;99.90;;;;;;5048650;28;20217;-88
2022/03/26 11:01:02;;;;;;;4.57;2.53;;;18.60;99.90;;;;;;5066745;28;20485;-89
2022/03/26 11:03:28;;;;;;;7.30;3.57;;;17.20;99.90;;;;;;5048312;28;20217;-89
2022/03/26 11:05:55;;;;;;;4.47;3.77;;;16.90;99.90;;;;;;5067116;28;20192;-89
2022/03/26 11:08:23;;;;;;;5.53;4.23;;;17.70;99.90;;;;;;5081514;28;20279;-90
2022/03/26 11:10:59;;;;;;;6.00;3.83;;;18.30;99.90;;;;;;5081160;28;20279;-90
2022/03/26 11:13:27;;;;;;;4.47;2.93;;;18.50;99.90;;;;;;5047494;28;20224;-86
2022/03/26 11:15:59;;;;;;;3.53;2.57;;;18.50;99.90;;;;;;5046261;28;20309;-90
2022/03/26 11:18:34;;;;;;;5.23;2.23;;;17.70;99.90;;;;;;5064940;28;20221;-87
2022/03/26 11:21:23;;;;;;;2.90;2.20;;;17.30;99.90;;;;;;5047056;28;20181;-89
2022/03/26 11:24:11;;;;;;;3.93;1.80;;;16.40;99.90;;;;;;5063783;28;20190;-91
2022/03/26 11:27:11;;;;;;;5.13;2.00;;;16.30;99.90;;;;;;5063507;28;20211;-90
2022/03/26 11:30:03;;;;;;;4.47;2.40;;;16.00;99.90;;;;;;5063151;28;20213;-89
2022/03/26 11:32:34;;;;;;;4.73;2.60;;;15.70;99.90;;;;;;5047447;28;20205;-89
2022/03/26 11:35:08;;;;;;;2.97;1.93;;;16.20;99.90;;;;;;5064903;28;20229;-91
2022/03/26 11:37:34;;;;;;;1.87;1.70;;;15.80;99.90;;;;;;5064391;28;20212;-88
2022/03/26 11:39:59;;;;;;;2.43;1.93;;;16.40;99.90;;;;;;5046662;28;20229;-92
2022/03/26 11:42:31;;;;;;;3.80;2.30;;;16.80;99.90;;;;;;5046906;28;20275;-88
2022/03/26 11:50:46;;;;;;;4.97;2.43;;;17.10;99.90;;;;;;5063731;28;20696;-89
2022/03/26 11:53:33;;;;;;;5.57;2.70;;;17.00;99.90;;;;;;5045126;28;20244;-85
2022/03/26 11:56:01;;;;;;;2.67;2.20;;;16.50;99.90;;;;;;5078656;28;20213;-86
2022/03/26 11:58:28;;;;;;;4.03;2.23;;;16.30;99.90;;;;;;5060913;28;20209;-86
2022/03/26 12:01:02;;;;;;;2.80;1.80;;;16.20;99.90;;;;;;5044669;28;20221;-88
2022/03/26 12:03:30;;;;;;;3.40;1.80;;;15.70;99.90;;;;;;5043757;28;20231;-86
2022/03/26 12:08:57;;;;;;;3.77;2.37;;;15.50;99.90;;;;;;5062880;28;20284;-88
2022/03/26 12:11:27;;;;;;;7.13;2.50;;;15.40;99.90;;;;;;5062364;28;20225;-86
2022/03/26 12:14:20;;;;;;;5.00;2.97;;;15.10;99.90;;;;;;5064377;28;20232;-89
2022/03/26 12:16:49;;;;;;;5.73;3.10;;;15.30;99.90;;;;;;5044887;28;20493;-89
2022/03/26 12:19:46;;;;;;;4.83;2.90;;;15.70;99.90;;;;;;5045193;28;20252;-89
2022/03/26 12:22:26;;;;;;;3.73;2.03;;;15.60;99.90;;;;;;5054207;28;20351;-89
2022/03/26 12:24:54;;;;;;;3.13;2.00;;;15.30;99.90;;;;;;5060433;28;20221;-86
2022/03/26 12:27:21;;;;;;;4.87;3.00;;;15.10;99.90;;;;;;5044442;28;20273;-88
2022/03/26 12:29:47;;;;;;;4.20;3.13;;;15.10;99.90;;;;;;5062243;28;20189;-88
2022/03/26 12:32:13;;;;;;;4.63;1.57;;;15.50;99.90;;;;;;5078223;28;20270;-86
2022/03/26 12:34:56;;;;;;;4.00;1.53;;;15.10;99.90;;;;;;5043838;28;20233;-82
2022/03/26 12:37:23;;;;;;;4.83;2.73;;;15.10;99.90;;;;;;5060291;28;20215;-86
2022/03/26 12:39:50;;;;;;;3.60;2.87;;;15.10;99.90;;;;;;5043244;28;20213;-85
2022/03/26 12:42:17;;;;;;;3.07;2.43;;;14.90;99.90;;;;;;5060142;28;20205;-87
2022/03/26 12:44:42;;;;;;;3.87;2.73;;;15.10;99.90;;;;;;5043936;28;20189;-86
2022/03/26 12:47:08;;;;;;;3.63;2.97;;;14.80;99.90;;;;;;5043267;28;20241;-89
2022/03/26 12:49:38;;;;;;;4.20;2.20;;;15.00;99.90;;;;;;5059865;28;20294;-86